Nearby METAR Reports

 

KDFW - Dallas/Ft Worth, Texas, USA
Distance from station: SSE 10mi, 16km
Updated: Wed, 23-Oct-2019 5:53pm CDT
Few Clouds
Few Clouds
 Wind from S
Wind: S 15 mph , 24 km/h, Gust: 24 mph , 39 km/h
Temperature: 79°F , 26°C
Dew Point: 52°F , 11°C
Humidity: 39%
Barometer: 29.89 inHg , 1012.2 hPa
Clouds: Few Clouds
Visibility: 10 miles , 16 km
Cloud details: Few Clouds 6500 ft
2019/10/23 22:53 KDFW 232253Z 17013G21KT 10SM FEW065 26/11 A2989 RMK AO2 PK WND 18028/2207 SLP116 T02610111
KDTO - Denton, Texas, USA
Distance from station: NNW 13mi, 21km
Updated: Wed, 23-Oct-2019 6:53pm CDT
Clear
Clear
 Wind from SSE
Wind: SSE 13 mph , 20 km/h
Temperature: 75°F , 24°C
Dew Point: 54°F , 12°C
Humidity: 47%
Barometer: 29.91 inHg , 1012.9 hPa
Clouds: Clear
Visibility: 10 miles , 16 km
2019/10/23 23:53 KDTO 232353Z 16011KT 10SM CLR 24/12 A2991 RMK AO2 SLP122 T02440117 10272 20244 55004
 
KAFW - Ft Worth/Allianc, Texas, USA
Distance from station: WSW 14mi, 22km
Updated: Wed, 23-Oct-2019 6:53pm CDT
Few Clouds
Few Clouds
 Wind from SSE
Wind: SSE 14 mph , 22 km/h
Temperature: 79°F , 26°C
Dew Point: 52°F , 11°C
Humidity: 39%
Barometer: 29.90 inHg , 1012.5 hPa
Clouds: Few Clouds
Visibility: 10 miles , 16 km
Cloud details: Few Clouds 6500 ft
2019/10/23 23:53 KAFW 232353Z 15012KT 10SM FEW065 26/11 A2990 RMK AO2 SLP117 T02560111 10278 20250 55002
KADS - Dallas/Addison, Texas, USA
Distance from station: ESE 17mi, 27km
Updated: Wed, 23-Oct-2019 6:47pm CDT
Partly cloudy
Partly cloudy
 Wind from SSE
Wind: SSE 16 mph , 26 km/h
Temperature: 77°F , 25°C
Dew Point: 50°F , 10°C
Humidity: 39%
Barometer: 29.93 inHg , 1013.5 hPa
Clouds: Partly cloudy
Visibility: 10 miles , 16 km
Cloud details: Partly cloudy 7000 ft
2019/10/23 23:47 KADS 232347Z 16014KT 10SM SCT070 25/10 A2993
 
KDAL - Dallas/Love Fld, Texas, USA
Distance from station: SE 19mi, 30km
Updated: Wed, 23-Oct-2019 6:53pm CDT
Few Clouds
Few Clouds
 Wind from SSE
Wind: SSE 12 mph , 19 km/h
Temperature: 79°F , 26°C
Dew Point: 50°F , 10°C
Humidity: 37%
Barometer: 29.93 inHg , 1013.5 hPa
Clouds: Few Clouds
Visibility: 10 miles , 16 km
Cloud details: Few Clouds 7000 ft
2019/10/23 23:53 KDAL 232353Z 15010KT 10SM FEW070 26/10 A2993 RMK AO2 SLP129 T02560100 10278 20244 53000
KFTW - Fort Worth, Texas, USA
Distance from station: SW 21mi, 34km
Updated: Wed, 23-Oct-2019 6:53pm CDT
Clear
Clear
 Wind from SE
Wind: SE 12 mph , 19 km/h
Temperature: 75°F , 24°C
Dew Point: 54°F , 12°C
Humidity: 47%
Barometer: 29.90 inHg , 1012.5 hPa
Clouds: Clear
Visibility: 10 miles , 16 km
2019/10/23 23:53 KFTW 232353Z 14010KT 10SM CLR 24/12 A2990 RMK AO2 SLP119 60000 T02390122 10267 20233 55002
 
KGPM - Grand Prairie, Texas, USA
Distance from station: S 23mi, 37km
Updated: Wed, 23-Oct-2019 6:50pm CDT
Clear
Clear
 Wind from SSE
Wind: SSE 9 mph , 15 km/h, Gust: 17 mph , 28 km/h
Temperature: 77°F , 25°C
Dew Point: 48°F , 9°C
Humidity: 36%
Barometer: 29.93 inHg , 1013.5 hPa
Clouds: Clear
Visibility: 10 miles , 16 km
2019/10/23 23:50 KGPM 232350Z 15008G15KT 10SM SKC 25/09 A2993
KGKY - Arlington, Texas, USA
Distance from station: S 25mi, 41km
Updated: Wed, 23-Oct-2019 6:53pm CDT
Clear
Clear
 Wind from SE
Wind: SE 10 mph , 17 km/h
Temperature: 79°F , 26°C
Dew Point: 52°F , 11°C
Humidity: 39%
Barometer: 29.92 inHg , 1013.2 hPa
Clouds: Clear
Visibility: 10 miles , 16 km
2019/10/23 23:53 KGKY 232353Z 14009KT 10SM CLR 26/11 A2992 RMK AO2 SLP126 T02560106 10278 20244 55000